createdAt,value
2022-07-25T00:01:56.920Z,2.80
2022-07-25T00:04:25.006Z,3.47
2022-07-25T00:06:52.417Z,1.88
2022-07-25T00:09:19.990Z,3.10
2022-07-25T00:11:47.265Z,3.47
2022-07-25T00:14:14.585Z,3.83
2022-07-25T00:16:42.159Z,2.30
2022-07-25T00:19:11.190Z,2.28
2022-07-25T00:21:38.492Z,2.05
2022-07-25T00:24:06.864Z,1.55
2022-07-25T00:26:39.432Z,3.08
2022-07-25T00:29:07.849Z,2.03
2022-07-25T00:31:35.577Z,2.45
2022-07-25T00:34:05.178Z,2.88
2022-07-25T00:36:33.040Z,2.22
2022-07-25T00:39:00.544Z,2.80
2022-07-25T00:41:27.895Z,2.80
2022-07-25T00:43:55.397Z,2.28
2022-07-25T00:46:22.928Z,3.13
2022-07-25T00:48:51.429Z,4.15
2022-07-25T00:51:19.161Z,2.97
2022-07-25T00:53:46.975Z,5.05
2022-07-25T00:56:15.666Z,3.85
2022-07-25T00:58:45.709Z,3.88
2022-07-25T01:01:13.189Z,3.83
2022-07-25T01:03:40.681Z,3.78
2022-07-25T01:06:09.368Z,4.75
2022-07-25T01:08:36.902Z,4.00
2022-07-25T01:11:04.363Z,4.82
2022-07-25T01:13:34.870Z,5.78
2022-07-25T01:16:02.445Z,7.10
2022-07-25T01:18:29.927Z,8.68
2022-07-25T01:20:58.159Z,6.95
2022-07-25T01:23:25.434Z,6.82
2022-07-25T01:25:52.918Z,8.27
2022-07-25T01:28:20.543Z,8.32
2022-07-25T01:30:47.932Z,5.13
2022-07-25T01:33:23.042Z,5.97
2022-07-25T01:35:51.097Z,4.57
2022-07-25T01:38:18.447Z,6.32
2022-07-25T01:40:45.854Z,4.38
2022-07-25T01:43:14.290Z,3.92
2022-07-25T01:45:42.072Z,4.57
2022-07-25T01:48:09.527Z,3.20
2022-07-25T01:50:37.236Z,3.85
2022-07-25T01:53:04.956Z,5.55
2022-07-25T01:55:32.361Z,3.55
2022-07-25T01:58:00.085Z,4.32
2022-07-25T02:00:28.396Z,3.65
2022-07-25T02:03:27.862Z,3.70
2022-07-25T02:05:55.424Z,4.28
2022-07-25T02:08:23.495Z,4.20
2022-07-25T02:10:50.863Z,3.80
2022-07-25T02:13:18.576Z,3.15
2022-07-25T02:15:46.109Z,3.38
2022-07-25T02:18:13.533Z,2.70
2022-07-25T02:20:41.061Z,2.80
2022-07-25T02:23:08.843Z,5.05
2022-07-25T02:25:36.492Z,4.40
2022-07-25T02:28:04.412Z,8.60
2022-07-25T02:30:31.900Z,3.17
2022-07-25T02:33:00.265Z,3.85
2022-07-25T02:35:28.004Z,3.50
2022-07-25T02:37:55.384Z,4.05
2022-07-25T02:40:22.769Z,5.22
2022-07-25T02:42:50.221Z,2.80
2022-07-25T02:45:18.137Z,4.63
2022-07-25T02:47:45.536Z,5.22
2022-07-25T02:50:14.763Z,4.85
2022-07-25T02:52:43.476Z,4.60
2022-07-25T02:55:11.926Z,3.63
2022-07-25T02:57:39.677Z,5.45
2022-07-25T03:00:08.554Z,4.38
2022-07-25T03:02:35.911Z,3.70
2022-07-25T03:05:11.732Z,6.57
2022-07-25T03:07:39.299Z,6.13
2022-07-25T03:10:11.067Z,5.57
2022-07-25T03:12:40.472Z,4.90
2022-07-25T03:15:10.366Z,4.32
2022-07-25T03:17:38.662Z,4.57
2022-07-25T03:20:08.045Z,3.55
2022-07-25T03:22:35.931Z,4.60
2022-07-25T03:25:03.969Z,4.50
2022-07-25T03:27:31.331Z,2.97
2022-07-25T03:29:58.830Z,4.03
2022-07-25T03:32:26.134Z,3.95
2022-07-25T03:34:53.430Z,5.55
2022-07-25T03:37:21.010Z,3.60
2022-07-25T03:39:48.553Z,3.60
2022-07-25T03:42:15.986Z,3.97
2022-07-25T03:44:43.548Z,12.93
2022-07-25T03:47:10.760Z,10.02
2022-07-25T03:49:48.187Z,8.93
2022-07-25T03:52:15.528Z,10.25
2022-07-25T03:54:42.890Z,9.00
2022-07-25T03:57:11.827Z,9.55
2022-07-25T03:59:39.473Z,9.73
2022-07-25T04:02:06.918Z,8.57
2022-07-25T04:04:34.487Z,11.73
2022-07-25T04:07:01.796Z,7.20
2022-07-25T04:09:33.459Z,6.45
2022-07-25T04:12:01.565Z,4.50
2022-07-25T04:14:28.944Z,7.28
2022-07-25T04:16:56.375Z,16.52
2022-07-25T04:19:23.963Z,13.27
2022-07-25T04:21:53.465Z,11.77
2022-07-25T04:24:20.721Z,13.77
2022-07-25T04:26:48.268Z,10.32
2022-07-25T04:29:15.875Z,13.52
2022-07-25T04:31:43.187Z,12.43
2022-07-25T04:34:10.734Z,10.02
2022-07-25T04:36:37.986Z,7.82
2022-07-25T04:39:05.398Z,7.63
2022-07-25T04:41:32.897Z,6.85
2022-07-25T04:44:00.267Z,6.22
2022-07-25T04:46:27.609Z,6.70
2022-07-25T04:48:55.138Z,5.15
2022-07-25T04:51:22.521Z,9.40
2022-07-25T04:53:50.927Z,11.77
2022-07-25T04:56:18.475Z,9.30
2022-07-25T04:58:45.850Z,21.25
2022-07-25T05:01:13.209Z,14.98
2022-07-25T05:03:41.143Z,14.85
2022-07-25T05:06:19.654Z,16.63
2022-07-25T05:08:47.441Z,16.55
2022-07-25T05:11:14.756Z,12.70
2022-07-25T05:13:42.056Z,8.85
2022-07-25T05:16:09.583Z,11.95
2022-07-25T05:18:36.870Z,12.00
2022-07-25T05:21:04.245Z,9.75
2022-07-25T05:23:31.803Z,20.17
2022-07-25T05:25:59.042Z,13.00
2022-07-25T05:28:26.380Z,10.70
2022-07-25T05:30:53.860Z,11.48
2022-07-25T05:33:21.208Z,10.90
2022-07-25T05:35:48.600Z,8.40
2022-07-25T05:38:16.649Z,14.40
2022-07-25T05:40:45.969Z,10.07
2022-07-25T05:43:13.270Z,10.10
2022-07-25T05:45:40.727Z,7.32
2022-07-25T05:48:07.981Z,5.32
2022-07-25T05:50:37.632Z,6.07
2022-07-25T05:53:05.218Z,6.47
2022-07-25T05:55:32.603Z,4.55
2022-07-25T05:58:00.138Z,3.95
2022-07-25T06:00:31.151Z,5.18
2022-07-25T06:03:00.638Z,7.88
2022-07-25T06:05:28.328Z,8.35
2022-07-25T06:07:56.140Z,7.40
2022-07-25T06:10:24.023Z,5.13
2022-07-25T06:12:51.493Z,5.97
2022-07-25T06:15:23.175Z,4.43
2022-07-25T06:17:54.819Z,37.55
2022-07-25T06:20:22.643Z,14.10
2022-07-25T06:22:50.284Z,7.80
2022-07-25T06:25:17.803Z,5.45
2022-07-25T06:27:45.553Z,4.05
2022-07-25T06:30:19.635Z,3.90
2022-07-25T06:32:49.801Z,5.10
2022-07-25T06:35:18.411Z,4.85
2022-07-25T06:37:46.929Z,3.42
2022-07-25T06:40:14.835Z,4.45
2022-07-25T06:42:47.787Z,3.50
2022-07-25T06:45:16.582Z,5.00
2022-07-25T06:47:45.413Z,8.38
2022-07-25T06:50:21.235Z,3.92
2022-07-25T06:52:49.367Z,2.90
2022-07-25T06:55:16.903Z,3.35
2022-07-25T06:57:44.301Z,2.88
2022-07-25T07:00:14.132Z,4.15
2022-07-25T07:03:01.646Z,3.60
2022-07-25T07:05:33.692Z,3.63
2022-07-25T07:08:01.751Z,3.20
2022-07-25T07:10:29.877Z,2.92
2022-07-25T07:13:24.714Z,2.90
2022-07-25T07:15:52.265Z,3.63
2022-07-25T07:18:21.705Z,3.05
2022-07-25T07:20:49.205Z,2.85
2022-07-25T07:23:17.954Z,3.42
2022-07-25T07:25:47.321Z,3.42
2022-07-25T07:28:16.292Z,3.38
2022-07-25T07:31:14.489Z,2.78
2022-07-25T07:33:32.952Z,2.97
2022-07-25T07:36:01.529Z,2.40
2022-07-25T07:38:28.901Z,2.92
2022-07-25T07:40:56.558Z,3.20
2022-07-25T07:43:29.378Z,2.85
2022-07-25T07:46:01.355Z,3.60
2022-07-25T07:48:31.162Z,3.80
2022-07-25T07:51:00.346Z,2.95
2022-07-25T07:53:46.818Z,3.10
2022-07-25T07:56:15.954Z,5.70
2022-07-25T07:58:43.575Z,7.82
2022-07-25T08:01:12.397Z,6.07
2022-07-25T08:03:39.931Z,3.00
2022-07-25T08:06:07.599Z,3.30
2022-07-25T08:08:34.901Z,3.10
2022-07-25T08:11:02.326Z,2.17
2022-07-25T08:13:34.059Z,2.20
2022-07-25T08:16:03.869Z,2.35
2022-07-25T08:18:32.998Z,2.30
2022-07-25T08:21:04.250Z,1.60
2022-07-25T08:23:33.143Z,2.17
2022-07-25T08:26:01.663Z,2.03
2022-07-25T08:28:29.366Z,2.15
2022-07-25T08:30:57.355Z,1.45
2022-07-25T08:33:26.235Z,1.83
2022-07-25T08:35:56.110Z,4.05
2022-07-25T08:38:26.134Z,20.95
2022-07-25T08:40:55.888Z,6.75
2022-07-25T08:43:23.553Z,2.38
2022-07-25T08:45:54.625Z,2.17
2022-07-25T08:48:26.466Z,1.95
2022-07-25T08:50:58.954Z,1.75
2022-07-25T08:53:35.613Z,2.65
2022-07-25T08:56:13.715Z,1.63
2022-07-25T08:58:44.462Z,3.13
2022-07-25T09:01:14.114Z,5.43
2022-07-25T09:03:43.625Z,4.47
2022-07-25T09:06:20.341Z,2.65
2022-07-25T09:09:00.750Z,2.35
2022-07-25T09:11:32.540Z,2.63
2022-07-25T09:14:15.361Z,5.80
2022-07-25T09:16:45.711Z,2.28
2022-07-25T09:19:19.961Z,1.60
2022-07-25T09:22:10.073Z,1.70
2022-07-25T09:24:45.792Z,1.80
2022-07-25T09:27:13.383Z,2.55
2022-07-25T09:29:45.127Z,1.60
2022-07-25T09:32:23.468Z,1.85
2022-07-25T09:34:56.895Z,1.67
2022-07-25T09:37:27.467Z,12.30
2022-07-25T09:39:54.907Z,3.25
2022-07-25T09:42:27.668Z,5.72
2022-07-25T09:45:14.685Z,9.25
2022-07-25T09:47:56.454Z,1.52
2022-07-25T09:50:26.426Z,1.80
2022-07-25T09:52:58.246Z,1.60
2022-07-25T09:55:25.619Z,1.10
2022-07-25T09:57:54.019Z,1.75
2022-07-25T10:00:27.700Z,1.50
2022-07-25T10:03:44.103Z,1.13
2022-07-25T10:06:49.752Z,1.02
2022-07-25T10:09:18.060Z,1.20
2022-07-25T10:12:06.899Z,1.20
2022-07-25T10:14:35.915Z,0.88
2022-07-25T10:17:04.399Z,1.52
2022-07-25T10:19:50.196Z,1.17
2022-07-25T10:22:39.723Z,0.60
2022-07-25T10:25:14.516Z,1.50
2022-07-25T10:27:49.656Z,1.35
2022-07-25T10:30:33.638Z,0.68
2022-07-25T10:33:04.697Z,1.08
2022-07-25T10:35:32.582Z,1.63
2022-07-25T10:38:04.313Z,0.90
2022-07-25T10:40:46.697Z,1.02
2022-07-25T10:43:20.690Z,0.60
2022-07-25T10:45:58.469Z,3.20
2022-07-25T10:48:27.765Z,1.60
2022-07-25T10:51:02.174Z,1.70
2022-07-25T10:53:49.115Z,1.90
2022-07-25T10:56:24.196Z,1.25
2022-07-25T10:58:58.623Z,1.27
2022-07-25T11:01:29.027Z,1.83
2022-07-25T11:04:02.791Z,1.65
2022-07-25T11:06:40.294Z,0.90
2022-07-25T11:09:28.743Z,1.55
2022-07-25T11:11:59.141Z,3.63
2022-07-25T11:14:33.221Z,2.13
2022-07-25T11:17:11.575Z,3.65
2022-07-25T11:19:38.983Z,2.30
2022-07-25T11:22:06.873Z,1.50
2022-07-25T11:24:44.809Z,1.40
2022-07-25T11:27:34.288Z,2.08
2022-07-25T11:30:21.047Z,1.55
2022-07-25T11:32:58.479Z,1.65
2022-07-25T11:35:32.522Z,2.83
2022-07-25T11:38:03.221Z,4.57
2022-07-25T11:40:32.824Z,2.45
2022-07-25T11:43:00.534Z,1.42
2022-07-25T11:45:33.143Z,1.83
2022-07-25T11:48:08.235Z,1.88
2022-07-25T11:50:41.162Z,1.92
2022-07-25T11:53:15.146Z,1.70
2022-07-25T11:55:44.554Z,2.05
2022-07-25T11:58:14.740Z,1.73
2022-07-25T12:00:50.195Z,1.20
2022-07-25T12:03:23.453Z,1.15
2022-07-25T12:05:50.995Z,1.60
2022-07-25T12:08:23.220Z,2.75
2022-07-25T12:10:55.306Z,2.50
2022-07-25T12:13:29.870Z,1.25
2022-07-25T12:15:59.875Z,1.95
2022-07-25T12:18:28.371Z,1.35
2022-07-25T12:20:55.785Z,1.20
2022-07-25T12:23:23.065Z,1.40
2022-07-25T12:25:50.994Z,1.63
2022-07-25T12:28:18.298Z,1.92
2022-07-25T12:30:50.502Z,1.10
2022-07-25T12:33:20.474Z,1.00
2022-07-25T12:35:47.787Z,2.55
2022-07-25T12:38:15.004Z,1.30
2022-07-25T12:40:42.452Z,2.10
2022-07-25T12:43:09.686Z,2.75
2022-07-25T12:45:37.130Z,1.27
2022-07-25T12:48:05.129Z,1.60
2022-07-25T12:50:32.419Z,13.90
2022-07-25T12:52:59.936Z,1.38
2022-07-25T12:55:27.895Z,1.50
2022-07-25T12:57:55.173Z,0.95
2022-07-25T13:00:24.453Z,1.55
2022-07-25T13:02:55.774Z,0.80
2022-07-25T13:05:25.633Z,0.93
2022-07-25T13:07:53.211Z,1.20
2022-07-25T13:10:20.725Z,0.65
2022-07-25T13:12:48.100Z,0.82
2022-07-25T13:15:15.778Z,1.25
2022-07-25T13:17:43.048Z,1.77
2022-07-25T13:20:11.332Z,2.78
2022-07-25T13:22:38.937Z,1.40
2022-07-25T13:25:06.901Z,1.00
2022-07-25T13:27:34.586Z,0.90
2022-07-25T13:30:02.132Z,0.90
2022-07-25T13:32:31.856Z,1.30
2022-07-25T13:34:59.150Z,1.45
2022-07-25T13:37:26.649Z,0.70
2022-07-25T13:39:53.852Z,3.70
2022-07-25T13:42:21.167Z,6.85
2022-07-25T13:44:48.641Z,1.80
2022-07-25T13:47:16.205Z,1.70
2022-07-25T13:49:43.450Z,1.60
2022-07-25T13:52:11.025Z,8.73
2022-07-25T13:54:38.385Z,5.35
2022-07-25T13:57:05.762Z,2.08
2022-07-25T13:59:33.306Z,1.20
2022-07-25T14:02:00.740Z,1.90
2022-07-25T14:04:28.112Z,1.90
2022-07-25T14:06:55.731Z,0.98
2022-07-25T14:09:24.080Z,1.10
2022-07-25T14:11:51.627Z,1.02
2022-07-25T14:14:19.204Z,1.58
2022-07-25T14:16:46.588Z,0.88
2022-07-25T14:19:13.871Z,3.08
2022-07-25T14:21:41.376Z,2.10
2022-07-25T14:24:09.085Z,2.58
2022-07-25T14:26:36.543Z,1.05
2022-07-25T14:29:04.914Z,2.00
2022-07-25T14:31:33.122Z,1.27
2022-07-25T14:34:00.394Z,1.55
2022-07-25T14:36:27.969Z,1.90
2022-07-25T14:38:55.246Z,1.85
2022-07-25T14:41:22.516Z,1.38
2022-07-25T14:43:49.974Z,1.38
2022-07-25T14:46:17.456Z,0.90
2022-07-25T14:48:44.896Z,1.35
2022-07-25T14:51:12.509Z,1.52
2022-07-25T14:53:39.778Z,1.23
2022-07-25T14:56:08.346Z,1.30
2022-07-25T14:58:36.275Z,2.13
2022-07-25T15:01:04.123Z,2.47
2022-07-25T15:03:31.495Z,2.05
2022-07-25T15:05:59.074Z,1.73
2022-07-25T15:08:26.475Z,1.15
2022-07-25T15:10:53.672Z,1.45
2022-07-25T15:13:31.161Z,2.05
2022-07-25T15:15:59.288Z,2.60
2022-07-25T15:18:26.864Z,1.50
2022-07-25T15:20:55.478Z,1.05
2022-07-25T15:23:25.835Z,9.15
2022-07-25T15:26:01.832Z,2.03
2022-07-25T15:28:34.066Z,2.15
2022-07-25T15:31:02.471Z,1.50
2022-07-25T15:33:29.867Z,1.45
2022-07-25T15:35:57.117Z,1.15
2022-07-25T15:38:24.730Z,1.35
2022-07-25T15:40:52.375Z,1.83
2022-07-25T15:43:19.915Z,1.15
2022-07-25T15:45:48.322Z,1.30
2022-07-25T15:48:17.131Z,1.30
2022-07-25T15:50:49.686Z,7.88
2022-07-25T15:53:17.888Z,1.48
2022-07-25T15:55:45.411Z,1.30
2022-07-25T15:58:13.096Z,3.33
2022-07-25T16:00:41.894Z,1.40
2022-07-25T16:03:10.532Z,1.23
2022-07-25T16:05:39.476Z,1.17
2022-07-25T16:08:08.550Z,1.40
2022-07-25T16:10:37.044Z,2.53
2022-07-25T16:13:04.972Z,1.30
2022-07-25T16:15:32.540Z,1.40
2022-07-25T16:18:02.629Z,1.60
2022-07-25T16:20:32.342Z,1.83
2022-07-25T16:23:01.179Z,2.35
2022-07-25T16:25:29.702Z,2.20
2022-07-25T16:27:57.818Z,1.90
2022-07-25T16:30:26.057Z,1.50
2022-07-25T16:32:53.686Z,2.55
2022-07-25T16:35:21.054Z,1.58
2022-07-25T16:37:48.520Z,2.83
2022-07-25T16:40:16.000Z,1.77
2022-07-25T16:42:43.640Z,2.10
2022-07-25T16:45:11.520Z,1.20
2022-07-25T16:47:41.012Z,1.67
2022-07-25T16:50:08.874Z,1.60
2022-07-25T16:52:36.276Z,1.38
2022-07-25T16:55:03.989Z,1.60
2022-07-25T16:57:32.626Z,1.63
2022-07-25T17:00:00.976Z,2.47
2022-07-25T17:02:29.930Z,2.38
2022-07-25T17:04:58.053Z,2.10
2022-07-25T17:07:26.385Z,2.70
2022-07-25T17:09:54.518Z,2.42
2022-07-25T17:12:22.486Z,2.47
2022-07-25T17:14:50.027Z,2.03
2022-07-25T17:17:17.467Z,2.28
2022-07-25T17:19:44.748Z,2.20
2022-07-25T17:22:12.287Z,2.63
2022-07-25T17:24:40.280Z,1.88
2022-07-25T17:27:09.324Z,1.90
2022-07-25T17:29:37.496Z,1.50
2022-07-25T17:32:08.389Z,2.38
2022-07-25T17:34:35.683Z,2.10
2022-07-25T17:37:03.458Z,3.00
2022-07-25T17:39:32.573Z,2.13
2022-07-25T17:42:00.274Z,2.50
2022-07-25T17:44:27.881Z,3.25
2022-07-25T17:46:55.249Z,2.00
2022-07-25T17:49:22.883Z,1.77
2022-07-25T17:51:50.626Z,1.45
2022-07-25T17:54:18.069Z,1.73
2022-07-25T17:56:45.691Z,1.75
2022-07-25T17:59:13.774Z,1.48
2022-07-25T18:01:41.184Z,1.58
2022-07-25T18:04:09.410Z,2.80
2022-07-25T18:06:38.289Z,1.83
2022-07-25T18:09:05.866Z,1.73
2022-07-25T18:11:33.277Z,2.15
2022-07-25T18:14:05.972Z,3.63
2022-07-25T18:16:33.742Z,2.33
2022-07-25T18:19:00.953Z,2.28
2022-07-25T18:21:28.445Z,3.28
2022-07-25T18:23:55.868Z,2.80
2022-07-25T18:26:23.959Z,4.00
2022-07-25T18:28:51.727Z,3.08
2022-07-25T18:31:20.518Z,3.35
2022-07-25T18:33:47.785Z,4.15
2022-07-25T18:36:16.457Z,2.63
2022-07-25T18:38:43.664Z,2.33
2022-07-25T18:43:58.774Z,2.75
2022-07-25T18:46:30.229Z,2.92
2022-07-25T18:48:58.790Z,2.80
2022-07-25T18:51:26.440Z,3.45
2022-07-25T18:53:53.821Z,3.28
2022-07-25T18:56:21.101Z,2.80
2022-07-25T18:58:48.712Z,2.10
2022-07-25T19:01:16.142Z,2.30
2022-07-25T19:03:43.465Z,3.50
2022-07-25T19:06:11.306Z,3.55
2022-07-25T19:08:38.781Z,4.63
2022-07-25T19:11:06.447Z,3.13
2022-07-25T19:13:51.192Z,3.75
2022-07-25T19:16:19.660Z,5.55
2022-07-25T19:18:47.824Z,5.78
2022-07-25T19:21:15.586Z,5.10
2022-07-25T19:23:49.698Z,5.47
2022-07-25T19:26:18.593Z,5.75
2022-07-25T19:28:46.055Z,3.92
2022-07-25T19:31:14.616Z,3.85
2022-07-25T19:33:42.622Z,3.95
2022-07-25T19:36:10.432Z,3.85
2022-07-25T19:38:37.945Z,3.28
2022-07-25T19:41:05.648Z,3.63
2022-07-25T19:43:33.003Z,3.58
2022-07-25T19:46:00.257Z,3.10
2022-07-25T19:48:27.919Z,5.22
2022-07-25T19:50:55.155Z,3.30
2022-07-25T19:53:26.812Z,3.17
2022-07-25T19:55:58.684Z,2.75
2022-07-25T19:58:26.007Z,5.72
2022-07-25T20:00:53.331Z,3.88
2022-07-25T20:03:23.366Z,3.75
2022-07-25T20:05:55.995Z,4.57
2022-07-25T20:08:23.461Z,2.80
2022-07-25T20:10:50.810Z,2.90
2022-07-25T20:13:18.157Z,2.63
2022-07-25T20:15:45.779Z,4.15
2022-07-25T20:18:19.130Z,4.07
2022-07-25T20:20:47.640Z,2.30
2022-07-25T20:23:14.952Z,4.80
2022-07-25T20:25:42.387Z,3.55
2022-07-25T20:28:10.178Z,2.20
2022-07-25T20:30:37.556Z,3.15
2022-07-25T20:33:05.491Z,5.50
2022-07-25T20:35:38.431Z,3.50
2022-07-25T20:38:09.341Z,3.45
2022-07-25T20:40:46.436Z,2.45
2022-07-25T20:43:16.571Z,4.30
2022-07-25T20:45:44.428Z,2.92
2022-07-25T20:48:11.709Z,4.63
2022-07-25T20:50:39.937Z,2.85
2022-07-25T20:53:08.554Z,3.95
2022-07-25T20:55:36.818Z,2.60
2022-07-25T20:58:05.054Z,4.18
2022-07-25T21:00:33.031Z,3.33
2022-07-25T21:03:01.040Z,2.33
2022-07-25T21:05:29.044Z,4.10
2022-07-25T21:07:57.092Z,2.80
2022-07-25T21:10:24.796Z,2.60
2022-07-25T21:12:52.364Z,3.92
2022-07-25T21:15:20.237Z,2.95
2022-07-25T21:17:47.509Z,3.53
2022-07-25T21:20:15.878Z,3.28
2022-07-25T21:22:44.655Z,2.47
2022-07-25T21:25:12.442Z,2.83
2022-07-25T21:27:44.645Z,3.47
2022-07-25T21:30:12.680Z,5.32
2022-07-25T21:32:41.208Z,2.22
2022-07-25T21:35:09.186Z,3.35
2022-07-25T21:37:36.928Z,2.65
2022-07-25T21:40:05.328Z,3.50
2022-07-25T21:42:32.626Z,2.67
2022-07-25T21:45:00.052Z,2.58
2022-07-25T21:47:27.259Z,2.50
2022-07-25T21:50:13.462Z,6.10
2022-07-25T21:52:50.653Z,4.53
2022-07-25T21:55:18.032Z,3.88
2022-07-25T21:57:45.205Z,5.80
2022-07-25T22:00:14.933Z,3.53
2022-07-25T22:02:44.880Z,2.63
2022-07-25T22:05:13.979Z,2.28
2022-07-25T22:07:43.432Z,3.80
2022-07-25T22:10:13.631Z,2.35
2022-07-25T22:12:42.176Z,2.60
2022-07-25T22:15:11.988Z,1.80
2022-07-25T22:17:48.249Z,2.72
2022-07-25T22:20:18.956Z,2.50
2022-07-25T22:22:48.513Z,2.20
2022-07-25T22:25:16.644Z,2.20
2022-07-25T22:27:44.539Z,3.58
2022-07-25T22:30:18.269Z,2.65
2022-07-25T22:32:50.661Z,3.00
2022-07-25T22:35:18.512Z,4.28
2022-07-25T22:37:46.367Z,3.47
2022-07-25T22:40:14.933Z,3.35
2022-07-25T22:42:42.397Z,2.85
2022-07-25T22:45:10.361Z,3.08
2022-07-25T22:47:37.863Z,3.13
2022-07-25T22:50:06.513Z,2.63
2022-07-25T22:52:35.168Z,2.63
2022-07-25T22:55:02.754Z,3.38
2022-07-25T22:57:29.987Z,2.40
2022-07-25T23:00:08.729Z,3.95
2022-07-25T23:02:36.111Z,3.00
2022-07-25T23:05:04.905Z,4.07
2022-07-25T23:07:34.147Z,2.85
2022-07-25T23:10:02.379Z,2.90
2022-07-25T23:12:29.665Z,3.42
2022-07-25T23:14:57.129Z,5.05
2022-07-25T23:17:24.905Z,3.60
2022-07-25T23:19:55.113Z,4.38
2022-07-25T23:22:26.096Z,3.28
2022-07-25T23:24:53.530Z,3.53
2022-07-25T23:27:20.985Z,4.78
2022-07-25T23:29:48.974Z,3.10
2022-07-25T23:32:16.296Z,3.85
2022-07-25T23:34:43.882Z,3.15
2022-07-25T23:37:11.768Z,3.15
2022-07-25T23:39:39.079Z,4.65
2022-07-25T23:42:06.539Z,3.53
2022-07-25T23:44:34.184Z,2.60
2022-07-25T23:47:04.406Z,2.80
2022-07-25T23:49:35.551Z,4.05
2022-07-25T23:52:02.833Z,5.03
2022-07-25T23:54:30.126Z,3.60
2022-07-25T23:56:57.545Z,4.75
2022-07-25T23:59:24.735Z,3.92
